createdAt,value
2023-01-21T00:00:33.069Z,99.95
2023-01-21T00:01:33.042Z,99.99
2023-01-21T00:02:33.096Z,99.99
2023-01-21T00:03:33.076Z,98.99
2023-01-21T00:04:33.015Z,99.24
2023-01-21T00:05:33.001Z,99.24
2023-01-21T00:06:33.008Z,99.03
2023-01-21T00:07:32.995Z,99.24
2023-01-21T00:08:32.997Z,99.24
2023-01-21T00:09:32.984Z,99.46
2023-01-21T00:10:32.956Z,98.60
2023-01-21T00:11:32.948Z,98.99
2023-01-21T00:12:32.933Z,99.03
2023-01-21T00:13:32.936Z,99.56
2023-01-21T00:14:32.923Z,99.88
2023-01-21T00:15:32.939Z,99.99
2023-01-21T00:16:32.909Z,99.99
2023-01-21T00:17:32.885Z,99.95
2023-01-21T00:18:32.892Z,99.77
2023-01-21T00:19:32.870Z,99.13
2023-01-21T00:20:32.858Z,99.35
2023-01-21T00:21:32.838Z,99.41
2023-01-21T00:22:32.829Z,99.63
2023-01-21T00:23:32.832Z,99.46
2023-01-21T00:24:32.808Z,99.88
2023-01-21T00:25:32.820Z,99.95
2023-01-21T00:26:32.799Z,99.99
2023-01-21T00:27:32.777Z,99.35
2023-01-21T00:28:32.782Z,99.99
2023-01-21T00:29:32.768Z,99.95
2023-01-21T00:30:32.757Z,99.84
2023-01-21T00:31:32.838Z,99.84
2023-01-21T00:32:32.733Z,99.95
2023-01-21T00:33:32.726Z,99.84
2023-01-21T00:34:32.703Z,99.09
2023-01-21T00:35:32.703Z,99.88
2023-01-21T00:36:32.684Z,99.84
2023-01-21T00:37:32.673Z,98.99
2023-01-21T00:38:32.702Z,98.99
2023-01-21T00:39:32.656Z,99.24
2023-01-21T00:40:32.640Z,98.99
2023-01-21T00:41:32.723Z,98.82
2023-01-21T00:42:32.636Z,98.56
2023-01-21T00:43:32.614Z,98.71
2023-01-21T00:44:32.644Z,99.35
2023-01-21T00:45:32.591Z,99.13
2023-01-21T00:46:32.668Z,99.13
2023-01-21T00:47:32.571Z,99.35
2023-01-21T00:48:32.569Z,98.50
2023-01-21T00:49:32.557Z,98.60
2023-01-21T00:50:32.561Z,98.93
2023-01-21T00:51:32.528Z,98.82
2023-01-21T00:52:32.527Z,98.50
2023-01-21T00:53:32.510Z,99.03
2023-01-21T00:54:32.514Z,98.28
2023-01-21T00:55:32.511Z,98.71
2023-01-21T00:56:32.495Z,98.18
2023-01-21T00:57:32.501Z,99.03
2023-01-21T00:58:32.462Z,98.39
2023-01-21T00:59:32.448Z,98.22
2023-01-21T01:00:32.435Z,98.43
2023-01-21T01:01:32.470Z,98.33
2023-01-21T01:02:32.497Z,98.28
2023-01-21T01:03:32.415Z,98.18
2023-01-21T01:04:32.500Z,98.33
2023-01-21T01:05:32.384Z,98.33
2023-01-21T01:06:32.383Z,98.33
2023-01-21T01:07:32.365Z,98.33
2023-01-21T01:08:32.377Z,98.27
2023-01-21T01:09:32.345Z,98.43
2023-01-21T01:10:32.341Z,98.48
2023-01-21T01:11:32.327Z,98.48
2023-01-21T01:12:32.324Z,98.48
2023-01-21T01:13:32.326Z,98.41
2023-01-21T01:14:32.303Z,98.16
2023-01-21T01:15:32.284Z,98.27
2023-01-21T01:16:32.274Z,98.27
2023-01-21T01:17:32.259Z,98.48
2023-01-21T01:18:32.260Z,98.58
2023-01-21T01:19:32.243Z,98.80
2023-01-21T01:20:32.244Z,98.91
2023-01-21T01:21:32.231Z,98.48
2023-01-21T01:22:32.207Z,98.05
2023-01-21T01:23:32.198Z,98.16
2023-01-21T01:24:32.198Z,98.37
2023-01-21T01:25:32.178Z,98.37
2023-01-21T01:26:32.179Z,98.16
2023-01-21T01:27:32.158Z,98.37
2023-01-21T01:28:32.145Z,98.27
2023-01-21T01:29:32.177Z,98.16
2023-01-21T01:30:32.142Z,98.52
2023-01-21T01:31:32.202Z,98.05
2023-01-21T01:32:32.137Z,98.37
2023-01-21T01:33:32.106Z,98.37
2023-01-21T01:34:32.093Z,98.31
2023-01-21T01:35:32.079Z,98.52
2023-01-21T01:36:32.066Z,98.52
2023-01-21T01:37:32.058Z,98.31
2023-01-21T01:38:32.057Z,98.41
2023-01-21T01:39:32.035Z,98.41
2023-01-21T01:40:32.119Z,97.88
2023-01-21T01:41:32.012Z,98.41
2023-01-21T01:42:32.000Z,97.56
2023-01-21T01:43:31.993Z,97.77
2023-01-21T01:44:31.994Z,98.31
2023-01-21T01:45:32.013Z,98.52
2023-01-21T01:46:32.124Z,98.03
2023-01-21T01:47:31.951Z,98.46
2023-01-21T01:48:31.944Z,98.63
2023-01-21T01:49:31.931Z,98.41
2023-01-21T01:50:31.936Z,98.41
2023-01-21T01:51:31.916Z,98.52
2023-01-21T01:52:31.908Z,98.41
2023-01-21T01:53:31.893Z,98.20
2023-01-21T01:54:31.923Z,98.20
2023-01-21T01:55:31.879Z,98.84
2023-01-21T01:56:31.891Z,99.01
2023-01-21T01:57:31.861Z,98.95
2023-01-21T01:58:31.843Z,98.95
2023-01-21T01:59:31.849Z,98.95
2023-01-21T02:00:31.815Z,98.95
2023-01-21T02:01:31.865Z,98.84
2023-01-21T02:02:31.839Z,98.84
2023-01-21T02:03:31.814Z,99.05
2023-01-21T02:04:31.783Z,99.16
2023-01-21T02:05:31.780Z,99.16
2023-01-21T02:06:31.754Z,98.84
2023-01-21T02:07:31.747Z,98.95
2023-01-21T02:08:31.760Z,99.05
2023-01-21T02:09:31.738Z,99.22
2023-01-21T02:10:31.725Z,98.48
2023-01-21T02:11:31.703Z,98.52
2023-01-21T02:12:31.697Z,98.69
2023-01-21T02:13:31.721Z,98.69
2023-01-21T02:14:31.688Z,99.12
2023-01-21T02:15:31.674Z,98.31
2023-01-21T02:16:31.651Z,98.37
2023-01-21T02:17:31.661Z,98.80
2023-01-21T02:18:31.630Z,98.63
2023-01-21T02:19:31.628Z,98.69
2023-01-21T02:20:31.623Z,98.69
2023-01-21T02:21:31.622Z,99.12
2023-01-21T02:22:31.592Z,98.58
2023-01-21T02:23:31.593Z,98.80
2023-01-21T02:24:31.587Z,98.69
2023-01-21T02:25:31.566Z,98.75
2023-01-21T02:26:31.562Z,98.97
2023-01-21T02:27:31.572Z,99.01
2023-01-21T02:28:31.533Z,99.01
2023-01-21T02:29:31.519Z,98.48
2023-01-21T02:30:31.567Z,98.27
2023-01-21T02:31:31.554Z,98.22
2023-01-21T02:32:31.494Z,98.75
2023-01-21T02:33:31.525Z,98.65
2023-01-21T02:34:31.464Z,99.01
2023-01-21T02:35:31.475Z,98.33
2023-01-21T02:36:31.486Z,98.37
2023-01-21T02:37:31.439Z,98.48
2023-01-21T02:38:31.447Z,98.58
2023-01-21T02:39:31.417Z,98.27
2023-01-21T02:40:31.422Z,98.37
2023-01-21T02:41:31.396Z,98.16
2023-01-21T02:42:31.383Z,98.58
2023-01-21T02:43:31.389Z,98.27
2023-01-21T02:44:31.376Z,98.37
2023-01-21T02:45:31.353Z,98.48
2023-01-21T02:46:31.390Z,98.20
2023-01-21T02:47:31.336Z,98.31
2023-01-21T02:48:31.329Z,98.58
2023-01-21T02:49:31.346Z,98.52
2023-01-21T02:50:31.309Z,97.88
2023-01-21T02:51:31.299Z,98.31
2023-01-21T02:52:31.307Z,97.88
2023-01-21T02:53:31.282Z,97.77
2023-01-21T02:54:31.259Z,98.31
2023-01-21T02:55:31.266Z,97.34
2023-01-21T02:56:31.249Z,97.67
2023-01-21T02:57:31.251Z,98.24
2023-01-21T02:58:31.218Z,98.24
2023-01-21T02:59:31.221Z,97.92
2023-01-21T03:00:31.228Z,98.14
2023-01-21T03:01:31.302Z,97.99
2023-01-21T03:02:31.201Z,97.92
2023-01-21T03:03:31.170Z,97.71
2023-01-21T03:04:31.161Z,98.03
2023-01-21T03:05:31.173Z,98.14
2023-01-21T03:06:31.138Z,97.81
2023-01-21T03:07:31.138Z,97.97
2023-01-21T03:08:31.138Z,98.03
2023-01-21T03:09:31.135Z,98.03
2023-01-21T03:10:31.097Z,98.35
2023-01-21T03:11:31.096Z,98.24
2023-01-21T03:12:31.080Z,98.07
2023-01-21T03:13:31.079Z,98.03
2023-01-21T03:14:31.080Z,97.92
2023-01-21T03:15:31.045Z,98.24
2023-01-21T03:16:31.134Z,98.24
2023-01-21T03:17:31.029Z,97.81
2023-01-21T03:18:31.014Z,98.24
2023-01-21T03:19:31.014Z,97.43
2023-01-21T03:20:31.010Z,97.86
2023-01-21T03:21:31.006Z,97.97
2023-01-21T03:22:30.976Z,97.86
2023-01-21T03:23:30.975Z,98.35
2023-01-21T03:24:30.951Z,97.60
2023-01-21T03:25:30.943Z,97.81
2023-01-21T03:26:30.956Z,98.07
2023-01-21T03:27:30.930Z,98.07
2023-01-21T03:28:30.910Z,97.60
2023-01-21T03:29:30.932Z,98.14
2023-01-21T03:30:30.951Z,97.71
2023-01-21T03:31:30.910Z,97.92
2023-01-21T03:32:30.891Z,98.24
2023-01-21T03:33:30.861Z,97.81
2023-01-21T03:34:30.857Z,97.92
2023-01-21T03:35:30.856Z,98.24
2023-01-21T03:36:30.844Z,97.39
2023-01-21T03:37:30.844Z,97.92
2023-01-21T03:38:30.822Z,97.75
2023-01-21T03:39:30.799Z,97.92
2023-01-21T03:40:30.787Z,98.39
2023-01-21T03:41:30.789Z,97.60
2023-01-21T03:42:30.777Z,97.60
2023-01-21T03:43:30.771Z,97.92
2023-01-21T03:44:30.763Z,97.92
2023-01-21T03:45:30.772Z,97.71
2023-01-21T03:46:30.725Z,97.81
2023-01-21T03:47:30.717Z,97.81
2023-01-21T03:48:30.812Z,97.60
2023-01-21T03:49:30.699Z,97.81
2023-01-21T03:50:30.700Z,97.54
2023-01-21T03:51:30.676Z,98.35
2023-01-21T03:52:30.663Z,98.46
2023-01-21T03:53:30.694Z,98.03
2023-01-21T03:54:30.654Z,98.03
2023-01-21T03:55:30.645Z,97.75
2023-01-21T03:56:30.643Z,97.75
2023-01-21T03:57:30.617Z,98.03
2023-01-21T03:58:30.613Z,97.33
2023-01-21T03:59:30.603Z,98.07
2023-01-21T04:00:30.601Z,97.17
2023-01-21T04:01:30.579Z,97.33
2023-01-21T04:02:30.631Z,98.03
2023-01-21T04:03:30.554Z,97.64
2023-01-21T04:04:30.540Z,97.86
2023-01-21T04:05:30.532Z,97.47
2023-01-21T04:06:30.536Z,97.97
2023-01-21T04:07:30.514Z,97.22
2023-01-21T04:08:30.516Z,96.90
2023-01-21T04:09:30.512Z,96.90
2023-01-21T04:10:30.477Z,97.00
2023-01-21T04:11:30.490Z,97.22
2023-01-21T04:12:30.480Z,98.07
2023-01-21T04:13:30.463Z,97.33
2023-01-21T04:14:30.455Z,97.97
2023-01-21T04:15:30.432Z,97.60
2023-01-21T04:16:30.505Z,97.33
2023-01-21T04:17:30.410Z,97.28
2023-01-21T04:18:30.413Z,97.28
2023-01-21T04:19:30.389Z,96.86
2023-01-21T04:20:30.401Z,96.79
2023-01-21T04:21:30.376Z,96.43
2023-01-21T04:22:30.363Z,96.22
2023-01-21T04:23:30.368Z,96.00
2023-01-21T04:24:30.341Z,96.04
2023-01-21T04:25:30.353Z,95.51
2023-01-21T04:26:30.344Z,95.61
2023-01-21T04:27:30.307Z,96.90
2023-01-21T04:28:30.300Z,96.69
2023-01-21T04:29:30.301Z,95.47
2023-01-21T04:30:30.396Z,95.83
2023-01-21T04:31:30.324Z,95.72
2023-01-21T04:32:30.271Z,95.79
2023-01-21T04:33:30.247Z,96.90
2023-01-21T04:34:30.242Z,96.36
2023-01-21T04:35:30.239Z,96.26
2023-01-21T04:36:30.214Z,96.04
2023-01-21T04:37:30.208Z,96.64
2023-01-21T04:38:30.218Z,96.22
2023-01-21T04:39:30.187Z,95.57
2023-01-21T04:40:30.182Z,95.68
2023-01-21T04:41:30.190Z,95.36
2023-01-21T04:42:30.161Z,95.89
2023-01-21T04:43:30.144Z,95.83
2023-01-21T04:44:30.147Z,96.00
2023-01-21T04:45:30.125Z,95.68
2023-01-21T04:46:30.132Z,96.00
2023-01-21T04:47:30.101Z,96.00
2023-01-21T04:48:30.097Z,96.75
2023-01-21T04:49:30.087Z,96.43
2023-01-21T04:50:30.090Z,96.47
2023-01-21T04:51:30.067Z,96.47
2023-01-21T04:52:30.061Z,96.15
2023-01-21T04:53:30.074Z,96.90
2023-01-21T04:54:30.037Z,96.69
2023-01-21T04:55:37.537Z,96.69
2023-01-21T04:56:30.034Z,96.58
2023-01-21T04:57:30.035Z,96.47
2023-01-21T04:58:37.532Z,96.36
2023-01-21T04:59:37.509Z,96.73
2023-01-21T05:00:37.497Z,97.11
2023-01-21T05:01:37.475Z,96.41
2023-01-21T05:02:37.579Z,96.69
2023-01-21T05:03:29.935Z,96.26
2023-01-21T05:04:29.941Z,96.26
2023-01-21T05:05:29.914Z,96.58
2023-01-21T05:06:29.914Z,97.11
2023-01-21T05:07:29.910Z,96.04
2023-01-21T05:08:29.941Z,96.62
2023-01-21T05:09:29.925Z,96.94
2023-01-21T05:10:29.873Z,96.73
2023-01-21T05:11:29.902Z,97.05
2023-01-21T05:12:29.848Z,96.90
2023-01-21T05:13:29.851Z,96.83
2023-01-21T05:14:29.849Z,96.69
2023-01-21T05:15:29.882Z,96.73
2023-01-21T05:16:29.909Z,96.62
2023-01-21T05:17:29.789Z,96.73
2023-01-21T05:18:29.784Z,96.69
2023-01-21T05:19:29.789Z,96.90
2023-01-21T05:20:29.780Z,97.22
2023-01-21T05:21:29.751Z,97.33
2023-01-21T05:22:29.753Z,97.86
2023-01-21T05:23:29.728Z,97.60
2023-01-21T05:24:29.733Z,97.86
2023-01-21T05:25:29.713Z,97.11
2023-01-21T05:26:29.715Z,97.33
2023-01-21T05:27:29.690Z,97.43
2023-01-21T05:28:29.689Z,97.11
2023-01-21T05:29:29.755Z,97.11
2023-01-21T05:30:29.725Z,97.00
2023-01-21T05:31:29.765Z,97.11
2023-01-21T05:32:29.654Z,97.11
2023-01-21T05:33:29.638Z,97.33
2023-01-21T05:34:29.625Z,96.90
2023-01-21T05:35:29.606Z,97.22
2023-01-21T05:36:29.610Z,96.90
2023-01-21T05:37:29.588Z,96.79
2023-01-21T05:38:29.601Z,96.47
2023-01-21T05:39:29.596Z,97.00
2023-01-21T05:40:29.591Z,96.69
2023-01-21T05:41:29.556Z,97.00
2023-01-21T05:42:29.535Z,96.58
2023-01-21T05:43:29.529Z,97.11
2023-01-21T05:44:29.537Z,96.79
2023-01-21T05:45:29.535Z,97.11
2023-01-21T05:46:29.500Z,97.11
2023-01-21T05:47:29.495Z,96.69
2023-01-21T05:48:29.477Z,96.83
2023-01-21T05:49:29.476Z,96.83
2023-01-21T05:50:29.468Z,96.90
2023-01-21T05:51:29.465Z,96.94
2023-01-21T05:52:29.443Z,97.00
2023-01-21T05:53:29.422Z,96.69
2023-01-21T05:54:29.426Z,97.00
2023-01-21T05:55:29.409Z,96.94
2023-01-21T05:56:29.412Z,97.22
2023-01-21T05:57:29.388Z,97.26
2023-01-21T05:58:29.374Z,96.83
2023-01-21T05:59:29.363Z,97.22
2023-01-21T06:00:29.365Z,96.90
2023-01-21T06:01:29.361Z,97.05
2023-01-21T06:02:29.397Z,97.00
2023-01-21T06:03:29.364Z,96.94
2023-01-21T06:04:29.311Z,97.11
2023-01-21T06:05:29.303Z,97.69
2023-01-21T06:06:29.303Z,97.22
2023-01-21T06:07:29.277Z,96.83
2023-01-21T06:08:29.296Z,97.69
2023-01-21T06:09:29.261Z,97.22
2023-01-21T06:10:29.261Z,96.83
2023-01-21T06:11:29.235Z,96.79
2023-01-21T06:12:29.252Z,97.26
2023-01-21T06:13:29.221Z,96.69
2023-01-21T06:14:29.223Z,97.05
2023-01-21T06:15:29.206Z,97.22
2023-01-21T06:16:29.188Z,97.00
2023-01-21T06:17:29.199Z,96.90
2023-01-21T06:18:29.178Z,96.79
2023-01-21T06:19:29.161Z,96.94
2023-01-21T06:20:29.159Z,96.94
2023-01-21T06:21:29.133Z,96.69
2023-01-21T06:22:29.129Z,96.69
2023-01-21T06:23:29.116Z,96.69
2023-01-21T06:24:29.129Z,97.22
2023-01-21T06:25:29.096Z,98.07
2023-01-21T06:26:29.100Z,97.16
2023-01-21T06:27:29.075Z,97.47
2023-01-21T06:28:29.066Z,97.54
2023-01-21T06:29:29.056Z,97.97
2023-01-21T06:30:29.057Z,97.22
2023-01-21T06:31:29.175Z,97.00
2023-01-21T06:32:29.044Z,96.90
2023-01-21T06:33:29.030Z,97.54
2023-01-21T06:34:29.005Z,97.22
2023-01-21T06:35:29.001Z,97.22
2023-01-21T06:36:29.001Z,97.22
2023-01-21T06:37:28.979Z,97.00
2023-01-21T06:38:28.983Z,97.00
2023-01-21T06:39:28.962Z,97.00
2023-01-21T06:40:28.943Z,98.07
2023-01-21T06:41:28.933Z,97.33
2023-01-21T06:42:28.926Z,97.11
2023-01-21T06:43:28.910Z,96.79
2023-01-21T06:44:28.923Z,96.36
2023-01-21T06:45:28.898Z,96.79
2023-01-21T06:46:28.962Z,97.00
2023-01-21T06:47:28.867Z,96.51
2023-01-21T06:48:28.860Z,96.69
2023-01-21T06:49:28.889Z,97.05
2023-01-21T06:50:28.861Z,97.22
2023-01-21T06:51:28.853Z,96.62
2023-01-21T06:52:28.828Z,96.94
2023-01-21T06:53:28.807Z,96.51
2023-01-21T06:54:30.511Z,96.73
2023-01-21T06:55:28.796Z,97.00
2023-01-21T06:56:28.804Z,96.45
2023-01-21T06:57:28.765Z,96.58
2023-01-21T06:58:28.793Z,96.51
2023-01-21T06:59:28.740Z,96.79
2023-01-21T07:00:28.736Z,96.83
2023-01-21T07:01:31.551Z,96.36
2023-01-21T07:02:28.757Z,96.62
2023-01-21T07:03:28.726Z,97.11
2023-01-21T07:04:28.723Z,96.58
2023-01-21T07:05:28.726Z,96.36
2023-01-21T07:06:28.704Z,96.73
2023-01-21T07:07:28.682Z,96.47
2023-01-21T07:08:28.689Z,96.90
2023-01-21T07:09:28.658Z,97.22
2023-01-21T07:10:28.640Z,96.90
2023-01-21T07:11:28.621Z,97.22
2023-01-21T07:12:28.617Z,97.11
2023-01-21T07:13:28.608Z,97.22
2023-01-21T07:14:28.621Z,97.22
2023-01-21T07:15:28.593Z,96.86
2023-01-21T07:16:28.658Z,97.00
2023-01-21T07:17:28.559Z,96.69
2023-01-21T07:18:28.683Z,97.00
2023-01-21T07:19:28.538Z,96.36
2023-01-21T07:20:28.709Z,96.26
2023-01-21T07:21:28.538Z,96.58
2023-01-21T07:22:28.511Z,96.69
2023-01-21T07:23:28.500Z,96.26
2023-01-21T07:24:28.506Z,97.00
2023-01-21T07:25:28.476Z,96.96
2023-01-21T07:26:28.492Z,96.64
2023-01-21T07:27:28.463Z,97.11
2023-01-21T07:28:28.469Z,97.07
2023-01-21T07:29:28.436Z,97.17
2023-01-21T07:30:28.509Z,96.96
2023-01-21T07:31:28.532Z,97.17
2023-01-21T07:32:28.419Z,96.96
2023-01-21T07:33:28.407Z,96.70
2023-01-21T07:34:28.391Z,96.70
2023-01-21T07:35:28.378Z,96.60
2023-01-21T07:36:28.367Z,96.17
2023-01-21T07:37:28.392Z,96.92
2023-01-21T07:38:28.379Z,96.43
2023-01-21T07:39:28.335Z,96.81
2023-01-21T07:40:28.329Z,96.60
2023-01-21T07:41:28.314Z,96.49
2023-01-21T07:42:28.326Z,96.81
2023-01-21T07:43:28.305Z,96.70
2023-01-21T07:44:28.304Z,96.60
2023-01-21T07:45:28.289Z,96.56
2023-01-21T07:46:28.305Z,96.60
2023-01-21T07:47:28.267Z,96.45
2023-01-21T07:48:28.254Z,96.70
2023-01-21T07:49:28.233Z,96.70
2023-01-21T07:50:28.250Z,96.60
2023-01-21T07:51:28.209Z,96.56
2023-01-21T07:52:28.213Z,96.45
2023-01-21T07:53:28.213Z,96.34
2023-01-21T07:54:28.183Z,96.77
2023-01-21T07:55:28.170Z,96.56
2023-01-21T07:56:28.178Z,96.45
2023-01-21T07:57:28.152Z,96.60
2023-01-21T07:58:28.180Z,96.62
2023-01-21T07:59:28.131Z,96.41
2023-01-21T08:00:28.123Z,96.51
2023-01-21T08:01:28.169Z,96.19
2023-01-21T08:02:28.269Z,96.41
2023-01-21T08:03:28.097Z,96.19
2023-01-21T08:04:28.084Z,95.98
2023-01-21T08:05:28.066Z,95.55
2023-01-21T08:06:28.058Z,95.66
2023-01-21T08:07:28.063Z,95.62
2023-01-21T08:08:28.057Z,95.83
2023-01-21T08:09:28.046Z,95.40
2023-01-21T08:10:28.020Z,95.34
2023-01-21T08:11:28.011Z,96.47
2023-01-21T08:12:28.002Z,96.68
2023-01-21T08:13:27.993Z,96.58
2023-01-21T08:14:28.006Z,96.47
2023-01-21T08:15:27.965Z,96.25
2023-01-21T08:16:27.987Z,95.29
2023-01-21T08:17:27.955Z,95.72
2023-01-21T08:18:27.937Z,96.25
2023-01-21T08:19:27.939Z,96.25
2023-01-21T08:20:27.944Z,96.25
2023-01-21T08:21:27.903Z,96.25
2023-01-21T08:22:27.897Z,96.15
2023-01-21T08:23:27.901Z,95.62
2023-01-21T08:24:27.873Z,96.53
2023-01-21T08:25:27.879Z,96.96
2023-01-21T08:26:27.881Z,97.49
2023-01-21T08:27:27.839Z,96.89
2023-01-21T08:28:27.835Z,97.55
2023-01-21T08:29:27.820Z,96.70
2023-01-21T08:30:27.813Z,96.53
2023-01-21T08:31:27.901Z,95.21
2023-01-21T08:32:27.813Z,94.82
2023-01-21T08:33:27.779Z,94.61
2023-01-21T08:34:27.777Z,94.57
2023-01-21T08:35:27.758Z,94.68
2023-01-21T08:36:27.755Z,94.14
2023-01-21T08:37:27.748Z,94.31
2023-01-21T08:38:27.744Z,94.21
2023-01-21T08:39:27.718Z,92.82
2023-01-21T08:40:27.731Z,93.52
2023-01-21T08:41:27.723Z,93.68
2023-01-21T08:42:27.686Z,92.89
2023-01-21T08:43:27.684Z,92.68
2023-01-21T08:44:27.695Z,92.25
2023-01-21T08:45:27.708Z,91.61
2023-01-21T08:46:27.647Z,92.78
2023-01-21T08:47:27.631Z,92.63
2023-01-21T08:48:27.627Z,92.52
2023-01-21T08:49:27.740Z,91.78
2023-01-21T08:50:27.625Z,91.99
2023-01-21T08:51:27.609Z,92.10
2023-01-21T08:52:27.583Z,91.46
2023-01-21T08:53:27.576Z,91.36
2023-01-21T08:54:27.560Z,91.25
2023-01-21T08:55:27.564Z,90.93
2023-01-21T08:56:27.563Z,91.14
2023-01-21T08:57:27.560Z,91.78
2023-01-21T08:58:27.520Z,91.78
2023-01-21T08:59:27.526Z,91.36
2023-01-21T09:00:27.497Z,92.21
2023-01-21T09:01:27.635Z,91.53
2023-01-21T09:02:27.587Z,91.74
2023-01-21T09:03:27.470Z,91.20
2023-01-21T09:04:27.458Z,91.27
2023-01-21T09:05:27.457Z,91.10
2023-01-21T09:06:27.443Z,90.67
2023-01-21T09:07:27.446Z,89.89
2023-01-21T09:08:27.438Z,90.57
2023-01-21T09:09:27.409Z,90.04
2023-01-21T09:10:27.400Z,89.93
2023-01-21T09:11:27.385Z,90.40
2023-01-21T09:12:27.375Z,90.08
2023-01-21T09:13:29.249Z,90.93
2023-01-21T09:14:27.377Z,90.08
2023-01-21T09:15:27.343Z,90.25
2023-01-21T09:16:27.356Z,90.61
2023-01-21T09:17:27.324Z,90.61
2023-01-21T09:18:27.311Z,90.04
2023-01-21T09:19:27.319Z,90.04
2023-01-21T09:20:27.303Z,90.95
2023-01-21T09:21:27.281Z,90.10
2023-01-21T09:22:27.281Z,89.29
2023-01-21T09:23:27.261Z,89.93
2023-01-21T09:24:27.258Z,89.83
2023-01-21T09:25:27.342Z,89.40
2023-01-21T09:26:27.285Z,90.42
2023-01-21T09:27:27.239Z,89.36
2023-01-21T09:28:27.209Z,89.29
2023-01-21T09:29:27.222Z,89.57
2023-01-21T09:30:27.210Z,88.93
2023-01-21T09:31:27.246Z,89.36
2023-01-21T09:32:27.195Z,89.11
2023-01-21T09:33:27.157Z,89.78
2023-01-21T09:34:27.143Z,89.47
2023-01-21T09:35:27.141Z,89.04
2023-01-21T09:36:27.144Z,89.15
2023-01-21T09:37:27.127Z,89.28
2023-01-21T09:38:27.147Z,89.11
2023-01-21T09:39:27.096Z,89.11
2023-01-21T09:40:27.083Z,89.00
2023-01-21T09:41:27.107Z,88.53
2023-01-21T09:42:27.063Z,88.60
2023-01-21T09:43:27.058Z,88.18
2023-01-21T09:44:27.072Z,87.71
2023-01-21T09:45:27.058Z,87.78
2023-01-21T09:46:27.018Z,87.46
2023-01-21T09:47:27.022Z,86.44
2023-01-21T09:48:26.996Z,86.69
2023-01-21T09:49:26.991Z,86.94
2023-01-21T09:50:27.000Z,87.58
2023-01-21T09:51:26.967Z,87.75
2023-01-21T09:52:26.956Z,87.43
2023-01-21T09:53:26.964Z,87.92
2023-01-21T09:54:26.958Z,87.39
2023-01-21T09:55:26.929Z,87.29
2023-01-21T09:56:26.928Z,87.50
2023-01-21T09:57:26.906Z,86.97
2023-01-21T09:58:26.899Z,87.71
2023-01-21T09:59:26.899Z,87.92
2023-01-21T10:00:26.883Z,87.46
2023-01-21T10:01:26.969Z,86.61
2023-01-21T10:02:26.863Z,86.51
2023-01-21T10:03:26.843Z,85.79
2023-01-21T10:04:26.886Z,85.89
2023-01-21T10:05:26.833Z,85.01
2023-01-21T10:06:26.822Z,84.97
2023-01-21T10:07:26.804Z,84.66
2023-01-21T10:08:26.801Z,84.66
2023-01-21T10:09:26.782Z,84.51
2023-01-21T10:10:26.779Z,83.62
2023-01-21T10:11:26.761Z,82.99
2023-01-21T10:12:26.747Z,83.34
2023-01-21T10:13:26.739Z,82.71
2023-01-21T10:14:26.754Z,83.49
2023-01-21T10:15:26.748Z,84.12
2023-01-21T10:16:26.797Z,84.44
2023-01-21T10:17:26.746Z,84.76
2023-01-21T10:18:29.050Z,84.80
2023-01-21T10:19:26.681Z,85.22
2023-01-21T10:20:26.678Z,84.91
2023-01-21T10:21:26.668Z,84.59
2023-01-21T10:22:26.659Z,84.16
2023-01-21T10:23:26.635Z,85.18
2023-01-21T10:24:26.623Z,84.09
2023-01-21T10:25:26.636Z,82.43
2023-01-21T10:26:26.620Z,83.45
2023-01-21T10:27:26.599Z,83.62
2023-01-21T10:28:26.596Z,82.46
2023-01-21T10:29:26.576Z,81.72
2023-01-21T10:30:26.664Z,82.25
2023-01-21T10:31:26.672Z,82.57
2023-01-21T10:32:26.553Z,82.46
2023-01-21T10:33:26.616Z,81.62
2023-01-21T10:34:26.523Z,81.65
2023-01-21T10:35:26.523Z,82.32
2023-01-21T10:36:26.503Z,81.90
2023-01-21T10:37:26.499Z,83.45
2023-01-21T10:38:26.493Z,83.45
2023-01-21T10:39:26.486Z,83.49
2023-01-21T10:40:26.458Z,83.66
2023-01-21T10:41:26.459Z,83.34
2023-01-21T10:42:26.439Z,83.38
2023-01-21T10:43:26.430Z,83.95
2023-01-21T10:44:26.438Z,84.38
2023-01-21T10:45:26.453Z,83.91
2023-01-21T10:46:26.434Z,83.63
2023-01-21T10:47:26.393Z,83.77
2023-01-21T10:48:28.768Z,83.49
2023-01-21T10:49:26.439Z,83.91
2023-01-21T10:50:26.378Z,83.45
2023-01-21T10:51:26.344Z,84.12
2023-01-21T10:52:26.340Z,82.96
2023-01-21T10:53:26.332Z,84.41
2023-01-21T10:54:26.329Z,84.61
2023-01-21T10:55:26.309Z,84.41
2023-01-21T10:56:26.309Z,83.94
2023-01-21T10:57:26.297Z,84.44
2023-01-21T10:58:26.270Z,84.44
2023-01-21T10:59:26.264Z,84.72
2023-01-21T11:00:26.260Z,83.98
2023-01-21T11:01:26.260Z,83.98
2023-01-21T11:02:26.259Z,84.23
2023-01-21T11:03:26.220Z,85.18
2023-01-21T11:04:26.207Z,86.52
2023-01-21T11:05:26.226Z,85.89
2023-01-21T11:06:26.196Z,85.25
2023-01-21T11:07:26.178Z,85.78
2023-01-21T11:08:26.180Z,85.32
2023-01-21T11:09:26.168Z,85.04
2023-01-21T11:10:26.151Z,85.68
2023-01-21T11:11:26.138Z,86.63
2023-01-21T11:12:26.129Z,85.04
2023-01-21T11:13:26.150Z,85.50
2023-01-21T11:14:26.126Z,85.57
2023-01-21T11:15:26.122Z,86.10
2023-01-21T11:16:26.084Z,85.85
2023-01-21T11:17:26.075Z,85.60
2023-01-21T11:18:26.063Z,84.12
2023-01-21T11:19:26.063Z,83.69
2023-01-21T11:20:26.051Z,84.47
2023-01-21T11:21:26.051Z,85.21
2023-01-21T11:22:26.029Z,85.64
2023-01-21T11:23:26.015Z,85.96
2023-01-21T11:24:25.997Z,85.39
2023-01-21T11:25:25.991Z,84.96
2023-01-21T11:26:25.988Z,84.96
2023-01-21T11:27:25.979Z,84.82
2023-01-21T11:28:25.967Z,85.35
2023-01-21T11:29:25.949Z,84.82
2023-01-21T11:30:44.189Z,85.28
2023-01-21T11:31:27.087Z,85.35
2023-01-21T11:32:25.930Z,84.71
2023-01-21T11:33:25.938Z,85.17
2023-01-21T11:34:25.903Z,86.44
2023-01-21T11:35:25.887Z,86.51
2023-01-21T11:36:25.885Z,86.36
2023-01-21T11:37:25.900Z,86.05
2023-01-21T11:38:25.886Z,86.47
2023-01-21T11:39:25.853Z,85.77
2023-01-21T11:40:26.026Z,85.60
2023-01-21T11:41:25.823Z,85.39
2023-01-21T11:42:25.811Z,85.91
2023-01-21T11:43:25.803Z,85.81
2023-01-21T11:44:25.817Z,86.36
2023-01-21T11:45:25.793Z,85.52
2023-01-21T11:46:25.834Z,86.16
2023-01-21T11:47:25.762Z,85.84
2023-01-21T11:48:25.747Z,85.88
2023-01-21T11:49:25.741Z,85.56
2023-01-21T11:50:25.750Z,84.82
2023-01-21T11:51:25.720Z,85.46
2023-01-21T11:52:25.724Z,86.19
2023-01-21T11:53:25.724Z,86.16
2023-01-21T11:54:25.683Z,86.26
2023-01-21T11:55:25.695Z,85.88
2023-01-21T11:56:25.672Z,86.30
2023-01-21T11:57:25.652Z,87.32
2023-01-21T11:58:25.645Z,86.16
2023-01-21T11:59:25.644Z,85.17
2023-01-21T12:00:25.649Z,85.49
2023-01-21T12:01:25.642Z,86.13
2023-01-21T12:02:25.666Z,86.27
2023-01-21T12:03:25.633Z,87.29
2023-01-21T12:04:25.617Z,87.08
2023-01-21T12:05:25.565Z,86.44
2023-01-21T12:06:25.561Z,87.29
2023-01-21T12:07:25.597Z,87.43
2023-01-21T12:08:25.553Z,88.39
2023-01-21T12:09:25.558Z,87.65
2023-01-21T12:10:25.539Z,86.69
2023-01-21T12:11:25.503Z,87.33
2023-01-21T12:12:26.470Z,88.39
2023-01-21T12:13:25.484Z,87.65
2023-01-21T12:14:25.483Z,88.89
2023-01-21T12:15:25.464Z,87.83
2023-01-21T12:16:25.515Z,88.26
2023-01-21T12:17:25.437Z,88.72
2023-01-21T12:18:25.438Z,89.14
2023-01-21T12:19:25.418Z,89.89
2023-01-21T12:20:25.429Z,91.05
2023-01-21T12:21:25.402Z,90.99
2023-01-21T12:22:25.385Z,91.83
2023-01-21T12:23:25.386Z,91.79
2023-01-21T12:24:25.374Z,92.43
2023-01-21T12:25:25.381Z,92.11
2023-01-21T12:26:25.369Z,91.69
2023-01-21T12:27:25.343Z,90.37
2023-01-21T12:28:25.322Z,89.64
2023-01-21T12:29:25.333Z,89.84
2023-01-21T12:30:25.302Z,89.04
2023-01-21T12:31:25.339Z,89.00
2023-01-21T12:32:25.384Z,87.37
2023-01-21T12:33:25.272Z,88.57
2023-01-21T12:34:25.259Z,88.53
2023-01-21T12:35:25.357Z,88.79
2023-01-21T12:36:25.242Z,89.84
2023-01-21T12:37:25.236Z,89.84
2023-01-21T12:38:26.717Z,90.91
2023-01-21T12:39:25.215Z,91.33
2023-01-21T12:40:25.196Z,91.12
2023-01-21T12:41:25.244Z,91.64
2023-01-21T12:42:25.178Z,91.75
2023-01-21T12:43:25.182Z,91.22
2023-01-21T12:44:25.191Z,91.08
2023-01-21T12:45:25.171Z,92.03
2023-01-21T12:46:25.174Z,92.60
2023-01-21T12:47:25.129Z,91.54
2023-01-21T12:48:25.126Z,91.37
2023-01-21T12:49:25.110Z,91.33
2023-01-21T12:50:25.134Z,91.54
2023-01-21T12:51:25.099Z,91.71
2023-01-21T12:52:25.074Z,90.59